Time;durP1;ratioP1;P1;durP2;ratioP2;P2;SDS_P1;SDS_P2;PMS_P1;PMS_P2;Temp;Humidity;BMP_temperature;BMP_pressure;BME280_temperature;BME280_humidity;BME280_pressure;Samples;Min_cycle;Max_cycle;Signal;HPM_P1;HPM_P2
2020/12/14 00:02:12;;;;;;;3.20;1.40;;;;;;;;;;5047461;28;20090;-72
2020/12/14 00:04:39;;;;;;;2.63;1.83;;;;;;;;;;5048393;28;20025;-72
2020/12/14 00:07:05;;;;;;;1.50;1.40;;;;;;;;;;5047226;28;20029;-72
2020/12/14 00:09:31;;;;;;;2.90;2.00;;;;;;;;;;5048175;28;20507;-72
2020/12/14 00:12:01;;;;;;;2.30;1.50;;;;;;;;;;5048435;28;20092;-72
2020/12/14 00:14:27;;;;;;;1.25;1.13;;;;;;;;;;5047574;28;20055;-72
2020/12/14 00:16:54;;;;;;;1.45;1.27;;;;;;;;;;5047945;28;20094;-72
2020/12/14 00:19:20;;;;;;;4.43;2.08;;;;;;;;;;5048185;28;20041;-72
2020/12/14 00:21:46;;;;;;;1.77;1.20;;;;;;;;;;5047928;28;20116;-72
2020/12/14 00:24:12;;;;;;;1.92;1.45;;;;;;;;;;5047484;28;20025;-72
2020/12/14 00:26:38;;;;;;;1.75;1.65;;;;;;;;;;5047943;28;20476;-72
2020/12/14 00:29:04;;;;;;;2.75;2.40;;;;;;;;;;5048856;28;20529;-72
2020/12/14 00:31:30;;;;;;;1.55;1.45;;;;;;;;;;5048066;28;20033;-72
2020/12/14 00:33:56;;;;;;;1.17;1.05;;;;;;;;;;5047560;28;20029;-72
2020/12/14 00:36:22;;;;;;;2.28;1.52;;;;;;;;;;5045568;28;20059;-72
2020/12/14 00:38:48;;;;;;;2.40;2.20;;;;;;;;;;5048529;28;20072;-72
2020/12/14 00:41:18;;;;;;;1.55;1.45;;;;;;;;;;5047580;28;20036;-72
2020/12/14 00:43:45;;;;;;;0.88;0.88;;;;;;;;;;5047400;28;20029;-72
2020/12/14 00:46:15;;;;;;;1.30;1.20;;;;;;;;;;5046623;28;20055;-72
2020/12/14 00:48:41;;;;;;;2.15;1.10;;;;;;;;;;5048094;28;20036;-72
2020/12/14 00:51:07;;;;;;;2.08;1.48;;;;;;;;;;5047811;28;20033;-72
2020/12/14 00:53:33;;;;;;;1.13;1.00;;;;;;;;;;5047641;28;20033;-72
2020/12/14 00:56:03;;;;;;;2.17;1.08;;;;;;;;;;5047467;28;20033;-72
2020/12/14 00:58:29;;;;;;;3.83;1.25;;;;;;;;;;5047196;28;20569;-72
2020/12/14 01:00:55;;;;;;;1.83;1.52;;;;;;;;;;5047992;28;20368;-73
2020/12/14 01:03:21;;;;;;;1.25;1.10;;;;;;;;;;5047365;28;20116;-72
2020/12/14 01:05:47;;;;;;;1.40;1.30;;;;;;;;;;5046772;28;20036;-72
2020/12/14 01:08:13;;;;;;;1.30;1.00;;;;;;;;;;5046562;28;20104;-72
2020/12/14 01:10:39;;;;;;;1.92;1.30;;;;;;;;;;5048139;28;20033;-72
2020/12/14 01:13:05;;;;;;;1.40;1.20;;;;;;;;;;5047125;28;20029;-72
2020/12/14 01:15:31;;;;;;;2.47;1.75;;;;;;;;;;5047117;28;20099;-72
2020/12/14 01:17:57;;;;;;;1.67;1.33;;;;;;;;;;5047237;28;20021;-72
2020/12/14 01:20:24;;;;;;;2.50;1.55;;;;;;;;;;5047270;28;20065;-72
2020/12/14 01:22:50;;;;;;;2.75;1.50;;;;;;;;;;5047205;28;20447;-72
2020/12/14 01:25:16;;;;;;;1.48;1.30;;;;;;;;;;5046347;28;20369;-72
2020/12/14 01:27:42;;;;;;;1.27;1.17;;;;;;;;;;5047822;28;20226;-72
2020/12/14 01:30:08;;;;;;;2.22;1.17;;;;;;;;;;5047379;28;20167;-72
2020/12/14 01:32:34;;;;;;;1.58;1.15;;;;;;;;;;5046912;28;20029;-72
2020/12/14 01:35:00;;;;;;;1.75;1.05;;;;;;;;;;5046969;28;20037;-72
2020/12/14 01:37:26;;;;;;;1.58;1.20;;;;;;;;;;5045571;28;20156;-72
2020/12/14 01:39:52;;;;;;;1.17;0.98;;;;;;;;;;5047674;28;20143;-72
2020/12/14 01:42:22;;;;;;;1.63;1.45;;;;;;;;;;5045402;28;20087;-72
2020/12/14 01:44:48;;;;;;;1.38;1.15;;;;;;;;;;5046855;28;20394;-72
2020/12/14 01:47:15;;;;;;;2.38;1.10;;;;;;;;;;5046384;28;20052;-72
2020/12/14 01:49:41;;;;;;;1.38;1.25;;;;;;;;;;5047547;28;20025;-72
2020/12/14 01:52:07;;;;;;;1.15;1.00;;;;;;;;;;5046723;28;20029;-72
2020/12/14 01:54:37;;;;;;;1.30;1.20;;;;;;;;;;5046939;28;20098;-72
2020/12/14 01:57:03;;;;;;;1.45;0.98;;;;;;;;;;5046960;28;20028;-72
2020/12/14 01:59:29;;;;;;;1.15;0.77;;;;;;;;;;5050400;28;20445;-72
2020/12/14 02:01:55;;;;;;;1.52;1.23;;;;;;;;;;5050721;28;20441;-72
2020/12/14 02:04:21;;;;;;;1.17;0.95;;;;;;;;;;5050168;28;20029;-72
2020/12/14 02:06:47;;;;;;;1.35;1.25;;;;;;;;;;5049039;28;20033;-72
2020/12/14 02:09:13;;;;;;;2.88;0.80;;;;;;;;;;5050532;28;20033;-72
2020/12/14 02:11:39;;;;;;;1.63;1.13;;;;;;;;;;5050528;28;20068;-72
2020/12/14 02:14:05;;;;;;;1.85;1.20;;;;;;;;;;5050291;28;20464;-72
2020/12/14 02:16:32;;;;;;;1.27;0.95;;;;;;;;;;5049941;28;20025;-72
2020/12/14 02:18:58;;;;;;;1.35;0.90;;;;;;;;;;5050937;28;20032;-72
2020/12/14 02:21:24;;;;;;;1.20;1.00;;;;;;;;;;5049930;28;20061;-72
2020/12/14 02:23:50;;;;;;;0.77;0.70;;;;;;;;;;5049431;28;20434;-73
2020/12/14 02:26:16;;;;;;;0.65;0.55;;;;;;;;;;5049477;28;20090;-72
2020/12/14 02:28:42;;;;;;;0.90;0.68;;;;;;;;;;5050404;28;20033;-72
2020/12/14 02:31:08;;;;;;;0.98;0.80;;;;;;;;;;5049963;28;20025;-72
2020/12/14 02:33:34;;;;;;;1.25;0.80;;;;;;;;;;5049525;28;20033;-72
2020/12/14 02:36:00;;;;;;;0.82;0.57;;;;;;;;;;5049200;28;20028;-72
2020/12/14 02:38:26;;;;;;;2.75;1.58;;;;;;;;;;5049070;28;20721;-72
2020/12/14 02:40:52;;;;;;;2.13;0.82;;;;;;;;;;5050122;28;20021;-72
2020/12/14 02:43:18;;;;;;;1.05;0.98;;;;;;;;;;5049435;28;20154;-72
2020/12/14 02:45:44;;;;;;;1.00;0.82;;;;;;;;;;5049605;28;20033;-72
2020/12/14 02:48:10;;;;;;;1.33;1.05;;;;;;;;;;5049392;28;20032;-72
2020/12/14 02:50:36;;;;;;;1.70;1.10;;;;;;;;;;5050083;28;20032;-72
2020/12/14 02:53:03;;;;;;;0.70;0.70;;;;;;;;;;5049904;28;20025;-72
2020/12/14 02:55:29;;;;;;;0.63;0.50;;;;;;;;;;5049297;28;20041;-72
2020/12/14 02:57:55;;;;;;;1.17;0.80;;;;;;;;;;5049584;28;20036;-72
2020/12/14 03:00:21;;;;;;;0.73;0.40;;;;;;;;;;5049464;28;20045;-72
2020/12/14 03:02:47;;;;;;;1.13;0.77;;;;;;;;;;5049318;28;20476;-72
2020/12/14 03:05:13;;;;;;;1.27;0.85;;;;;;;;;;5048187;28;20571;-72
2020/12/14 03:07:40;;;;;;;1.30;0.47;;;;;;;;;;5048313;28;20025;-72
2020/12/14 03:10:06;;;;;;;0.63;0.55;;;;;;;;;;5049717;28;20037;-73
2020/12/14 03:12:32;;;;;;;1.23;0.57;;;;;;;;;;5048802;28;20332;-72
2020/12/14 03:14:59;;;;;;;0.90;0.50;;;;;;;;;;5049879;28;20102;-72
2020/12/14 03:17:25;;;;;;;0.50;0.50;;;;;;;;;;5048507;28;20033;-72
2020/12/14 03:19:51;;;;;;;1.30;0.55;;;;;;;;;;5049690;28;20448;-72
2020/12/14 03:22:17;;;;;;;0.47;0.30;;;;;;;;;;5048644;28;20029;-73
2020/12/14 03:24:43;;;;;;;0.68;0.50;;;;;;;;;;5048817;28;20021;-72
2020/12/14 03:27:09;;;;;;;1.30;1.05;;;;;;;;;;5048379;28;20069;-72
2020/12/14 03:29:36;;;;;;;0.70;0.68;;;;;;;;;;5049352;28;20071;-72
2020/12/14 03:32:02;;;;;;;1.05;1.05;;;;;;;;;;5048799;28;20442;-72
2020/12/14 03:34:28;;;;;;;0.22;0.22;;;;;;;;;;5048178;28;20033;-72
2020/12/14 03:36:54;;;;;;;0.75;0.68;;;;;;;;;;5047863;28;20115;-72
2020/12/14 03:39:20;;;;;;;0.30;0.30;;;;;;;;;;5048674;28;20086;-72
2020/12/14 03:41:46;;;;;;;0.68;0.68;;;;;;;;;;5049105;28;20537;-72
2020/12/14 03:44:12;;;;;;;1.65;1.02;;;;;;;;;;5047828;28;20506;-72
2020/12/14 03:46:38;;;;;;;1.38;0.93;;;;;;;;;;5049064;28;20487;-72
2020/12/14 03:49:04;;;;;;;1.15;0.47;;;;;;;;;;5048995;28;20036;-72
2020/12/14 03:51:31;;;;;;;0.82;0.82;;;;;;;;;;5048446;28;20090;-72
2020/12/14 03:53:57;;;;;;;1.10;0.40;;;;;;;;;;5048692;28;20412;-72
2020/12/14 03:56:24;;;;;;;1.15;0.88;;;;;;;;;;5047674;28;20075;-72
2020/12/14 03:58:50;;;;;;;1.27;0.50;;;;;;;;;;5049256;28;20037;-72
2020/12/14 04:01:20;;;;;;;0.60;0.60;;;;;;;;;;5048393;28;20047;-72
2020/12/14 04:03:46;;;;;;;0.35;0.35;;;;;;;;;;5048451;28;20480;-72
2020/12/14 04:06:19;;;;;;;0.57;0.38;;;;;;;;;;5046636;28;20024;-72
2020/12/14 04:08:45;;;;;;;0.30;0.30;;;;;;;;;;5048025;28;20455;-72
2020/12/14 04:11:11;;;;;;;0.57;0.30;;;;;;;;;;5047687;28;20045;-72
2020/12/14 04:13:37;;;;;;;0.40;0.40;;;;;;;;;;5047848;28;20025;-72
2020/12/14 04:16:03;;;;;;;0.38;0.35;;;;;;;;;;5048370;28;20556;-72
2020/12/14 04:18:29;;;;;;;0.90;0.50;;;;;;;;;;5047985;28;20044;-72
2020/12/14 04:20:56;;;;;;;0.75;0.40;;;;;;;;;;5048526;28;20025;-72
2020/12/14 04:23:22;;;;;;;0.47;0.47;;;;;;;;;;5047336;28;20055;-72
2020/12/14 04:25:48;;;;;;;1.88;0.38;;;;;;;;;;5048120;28;20455;-72
2020/12/14 04:28:14;;;;;;;0.20;0.20;;;;;;;;;;5047705;28;20021;-72
2020/12/14 04:30:40;;;;;;;0.32;0.32;;;;;;;;;;5048459;28;20033;-72
2020/12/14 04:33:07;;;;;;;0.38;0.38;;;;;;;;;;5047437;28;20021;-72
2020/12/14 04:35:33;;;;;;;0.80;0.40;;;;;;;;;;5047234;28;20476;-72
2020/12/14 04:37:59;;;;;;;0.98;0.93;;;;;;;;;;5047178;28;20049;-72
2020/12/14 04:40:28;;;;;;;0.43;0.40;;;;;;;;;;5047445;28;20665;-72
2020/12/14 04:42:58;;;;;;;0.22;0.20;;;;;;;;;;5047535;28;20047;-72
2020/12/14 04:45:27;;;;;;;0.57;0.30;;;;;;;;;;5047072;28;20058;-72
2020/12/14 04:47:57;;;;;;;0.28;0.28;;;;;;;;;;5047792;28;20066;-72
2020/12/14 04:50:24;;;;;;;1.40;0.20;;;;;;;;;;5047927;28;20025;-72
2020/12/14 04:52:51;;;;;;;1.05;0.40;;;;;;;;;;5047866;28;20060;-72
2020/12/14 04:55:23;;;;;;;0.28;0.20;;;;;;;;;;5046876;28;20499;-72
2020/12/14 04:57:53;;;;;;;0.15;0.15;;;;;;;;;;5048108;28;20037;-72
2020/12/14 05:00:19;;;;;;;0.38;0.22;;;;;;;;;;5047103;28;20040;-72
2020/12/14 05:02:46;;;;;;;0.82;0.50;;;;;;;;;;5047637;28;20025;-72
2020/12/14 05:05:12;;;;;;;0.75;0.35;;;;;;;;;;5046720;28;20573;-72
2020/12/14 05:07:42;;;;;;;0.17;0.17;;;;;;;;;;5046914;28;20029;-72
2020/12/14 05:10:09;;;;;;;0.30;0.30;;;;;;;;;;5047217;28;20021;-72
2020/12/14 05:12:39;;;;;;;0.15;0.15;;;;;;;;;;5047481;28;20095;-72
2020/12/14 05:15:14;;;;;;;0.30;0.25;;;;;;;;;;5047476;28;20036;-72
2020/12/14 05:17:40;;;;;;;0.30;0.30;;;;;;;;;;5047834;28;20032;-72
2020/12/14 05:20:14;;;;;;;0.57;0.30;;;;;;;;;;5047637;28;20033;-72
2020/12/14 05:22:54;;;;;;;0.30;0.20;;;;;;;;;;5047599;28;20025;-72
2020/12/14 05:25:20;;;;;;;0.32;0.30;;;;;;;;;;5046276;28;20025;-72
2020/12/14 05:27:46;;;;;;;1.88;1.05;;;;;;;;;;5047883;28;20104;-72
2020/12/14 05:30:15;;;;;;;0.20;0.20;;;;;;;;;;5046997;28;20452;-72
2020/12/14 05:32:41;;;;;;;0.17;0.17;;;;;;;;;;5048314;28;20501;-72
2020/12/14 05:35:11;;;;;;;0.10;0.10;;;;;;;;;;5050555;28;20033;-72
2020/12/14 05:37:38;;;;;;;0.30;0.30;;;;;;;;;;5050417;28;20049;-72
2020/12/14 05:40:13;;;;;;;0.40;0.28;;;;;;;;;;5051499;28;20499;-72
2020/12/14 05:42:42;;;;;;;0.15;0.13;;;;;;;;;;5050584;28;20128;-72
2020/12/14 05:45:11;;;;;;;0.20;0.20;;;;;;;;;;5050479;28;20079;-73
2020/12/14 05:47:37;;;;;;;0.47;0.20;;;;;;;;;;5050864;28;20023;-72
2020/12/14 05:50:08;;;;;;;0.20;0.20;;;;;;;;;;5051407;28;20029;-72
2020/12/14 05:52:36;;;;;;;0.20;0.20;;;;;;;;;;5050999;28;20061;-72
2020/12/14 05:55:02;;;;;;;1.33;0.40;;;;;;;;;;5049482;28;20020;-72
2020/12/14 05:57:32;;;;;;;0.10;0.10;;;;;;;;;;5050419;28;20063;-72
2020/12/14 06:00:00;;;;;;;0.28;0.20;;;;;;;;;;5051316;28;20082;-72
2020/12/14 06:02:27;;;;;;;1.00;0.90;;;;;;;;;;5050186;28;20045;-72
2020/12/14 06:04:56;;;;;;;0.20;0.20;;;;;;;;;;5050144;28;20021;-72
2020/12/14 06:07:25;;;;;;;0.25;0.20;;;;;;;;;;5049102;28;20104;-72
2020/12/14 06:10:01;;;;;;;0.15;0.15;;;;;;;;;;5051308;28;20452;-72
2020/12/14 06:12:29;;;;;;;0.50;0.50;;;;;;;;;;5049784;28;20514;-72
2020/12/14 06:14:59;;;;;;;0.30;0.30;;;;;;;;;;5050388;28;20017;-72
2020/12/14 06:17:26;;;;;;;1.33;0.68;;;;;;;;;;5049865;28;20187;-72
2020/12/14 06:19:54;;;;;;;0.20;0.20;;;;;;;;;;5051048;28;20124;-72
2020/12/14 06:22:21;;;;;;;0.28;0.28;;;;;;;;;;5049555;28;20036;-72
2020/12/14 06:24:47;;;;;;;0.93;0.30;;;;;;;;;;5049943;28;20029;-72
2020/12/14 06:27:14;;;;;;;0.20;0.20;;;;;;;;;;5049821;28;20021;-72
2020/12/14 06:29:40;;;;;;;0.30;0.20;;;;;;;;;;5051224;28;20036;-72
2020/12/14 06:32:26;;;;;;;0.55;0.30;;;;;;;;;;5049938;28;20029;-72
2020/12/14 06:34:52;;;;;;;1.33;0.28;;;;;;;;;;5049100;28;20021;-73
2020/12/14 06:37:22;;;;;;;0.20;0.20;;;;;;;;;;5038836;28;20045;-72
2020/12/14 06:39:57;;;;;;;0.32;0.30;;;;;;;;;;5045877;28;20041;-72
2020/12/14 06:42:24;;;;;;;0.47;0.22;;;;;;;;;;5046205;28;20036;-73
2020/12/14 06:44:53;;;;;;;2.53;0.57;;;;;;;;;;5039509;28;20110;-73
2020/12/14 06:47:19;;;;;;;0.95;0.82;;;;;;;;;;5043143;28;20028;-73
2020/12/14 06:49:47;;;;;;;0.90;0.40;;;;;;;;;;5043882;28;20063;-72
2020/12/14 06:52:13;;;;;;;0.60;0.57;;;;;;;;;;5048063;28;20040;-73
2020/12/14 06:54:40;;;;;;;0.52;0.52;;;;;;;;;;5048448;28;20021;-73
2020/12/14 06:57:07;;;;;;;0.65;0.60;;;;;;;;;;5047852;28;20033;-72
2020/12/14 06:59:33;;;;;;;1.08;0.50;;;;;;;;;;5042410;28;20029;-72
2020/12/14 07:02:01;;;;;;;0.63;0.63;;;;;;;;;;5047728;28;20276;-72
2020/12/14 07:04:31;;;;;;;4.03;1.15;;;;;;;;;;5045734;28;20035;-72
2020/12/14 07:06:57;;;;;;;0.73;0.65;;;;;;;;;;5044686;28;20415;-72
2020/12/14 07:09:27;;;;;;;0.98;0.70;;;;;;;;;;5043685;28;20025;-72
2020/12/14 07:11:53;;;;;;;1.30;1.20;;;;;;;;;;5047943;28;20384;-72
2020/12/14 07:14:29;;;;;;;1.27;0.82;;;;;;;;;;5046972;28;20033;-73
2020/12/14 07:16:56;;;;;;;1.83;0.77;;;;;;;;;;5033384;28;20407;-72
2020/12/14 07:19:26;;;;;;;1.55;0.88;;;;;;;;;;5036783;28;20029;-72
2020/12/14 07:21:56;;;;;;;1.48;0.63;;;;;;;;;;5044687;28;20029;-72
2020/12/14 07:24:23;;;;;;;0.55;0.50;;;;;;;;;;5044825;28;20029;-72
2020/12/14 07:26:49;;;;;;;0.75;0.50;;;;;;;;;;5037479;28;20025;-74
2020/12/14 07:29:20;;;;;;;2.80;0.68;;;;;;;;;;5037221;28;20028;-73
2020/12/14 07:31:46;;;;;;;0.45;0.45;;;;;;;;;;5036199;28;20496;-74
2020/12/14 07:34:12;;;;;;;1.27;1.17;;;;;;;;;;5037778;28;21600;-74
2020/12/14 07:36:39;;;;;;;1.40;1.00;;;;;;;;;;5027752;28;20086;-73
2020/12/14 07:39:07;;;;;;;1.92;1.23;;;;;;;;;;5037412;28;20041;-74
2020/12/14 07:41:33;;;;;;;1.08;0.98;;;;;;;;;;5031830;28;20412;-72
2020/12/14 07:44:00;;;;;;;2.42;1.35;;;;;;;;;;5030697;28;20353;-72
2020/12/14 07:46:29;;;;;;;3.25;1.13;;;;;;;;;;5030723;28;20209;-72
2020/12/14 07:49:02;;;;;;;4.35;1.73;;;;;;;;;;5039912;28;20099;-74
2020/12/14 07:51:29;;;;;;;3.85;1.42;;;;;;;;;;5029714;28;20025;-73
2020/12/14 07:54:03;;;;;;;1.40;1.10;;;;;;;;;;5031253;28;20038;-73
2020/12/14 07:56:29;;;;;;;;;;;;;;;;;;5028828;28;20440;-73
2020/12/14 07:58:55;;;;;;;2.63;1.85;;;;;;;;;;5026847;28;19913;-75
2020/12/14 08:01:22;;;;;;;3.17;1.98;;;;;;;;;;5036163;28;20033;-73
2020/12/14 08:03:48;;;;;;;5.60;3.00;;;;;;;;;;5039881;28;20033;-73
2020/12/14 08:06:14;;;;;;;4.40;1.33;;;;;;;;;;5036154;28;20458;-73
2020/12/14 08:08:41;;;;;;;1.95;1.58;;;;;;;;;;5044115;28;20560;-73
2020/12/14 08:11:07;;;;;;;4.90;1.52;;;;;;;;;;5042366;28;20040;-72
2020/12/14 08:13:34;;;;;;;1.60;1.50;;;;;;;;;;5037728;28;20057;-73
2020/12/14 08:16:07;;;;;;;6.28;2.72;;;;;;;;;;5036271;28;20387;-73
2020/12/14 08:18:37;;;;;;;1.73;1.58;;;;;;;;;;5036961;28;20103;-73
2020/12/14 08:21:03;;;;;;;2.85;1.38;;;;;;;;;;5034825;28;20048;-73
2020/12/14 08:23:32;;;;;;;2.45;1.45;;;;;;;;;;5028156;28;20056;-74
2020/12/14 08:25:58;;;;;;;2.33;1.35;;;;;;;;;;5033511;28;20032;-73
2020/12/14 08:28:31;;;;;;;1.73;1.13;;;;;;;;;;5034515;28;20087;-74
2020/12/14 08:30:58;;;;;;;1.38;1.23;;;;;;;;;;5037953;28;20021;-73
2020/12/14 08:33:24;;;;;;;2.78;2.08;;;;;;;;;;5029692;28;20025;-73
2020/12/14 08:35:51;;;;;;;1.83;1.60;;;;;;;;;;5030922;28;20029;-73
2020/12/14 08:38:21;;;;;;;2.35;1.20;;;;;;;;;;5033534;28;20048;-73
2020/12/14 08:40:58;;;;;;;4.95;1.80;;;;;;;;;;5034181;28;20033;-74
2020/12/14 08:43:25;;;;;;;2.58;1.30;;;;;;;;;;5031904;28;20033;-74
2020/12/14 08:46:00;;;;;;;5.78;1.55;;;;;;;;;;5036660;28;20036;-74
2020/12/14 08:48:26;;;;;;;3.10;1.52;;;;;;;;;;5030628;28;20059;-73
2020/12/14 08:51:04;;;;;;;6.82;1.83;;;;;;;;;;5033257;28;20107;-73
2020/12/14 08:53:30;;;;;;;3.60;1.73;;;;;;;;;;5030729;28;20437;-73
2020/12/14 08:56:01;;;;;;;3.65;1.63;;;;;;;;;;5021864;28;20629;-73
2020/12/14 08:58:27;;;;;;;2.97;1.83;;;;;;;;;;5031803;28;20036;-73
2020/12/14 09:00:53;;;;;;;1.77;1.63;;;;;;;;;;5038316;28;20029;-73
2020/12/14 09:03:19;;;;;;;2.85;2.03;;;;;;;;;;5030632;28;20124;-75
2020/12/14 09:05:45;;;;;;;4.18;2.25;;;;;;;;;;5025122;28;20526;-75
2020/12/14 09:08:15;;;;;;;2.53;2.33;;;;;;;;;;5035007;28;20013;-73
2020/12/14 09:10:42;;;;;;;1.45;1.35;;;;;;;;;;5047117;28;20033;-75
2020/12/14 09:13:09;;;;;;;2.33;1.90;;;;;;;;;;5040762;28;20021;-73
2020/12/14 09:15:35;;;;;;;4.60;1.50;;;;;;;;;;5039606;28;20037;-74
2020/12/14 09:18:02;;;;;;;1.65;1.55;;;;;;;;;;5038430;28;20394;-73
2020/12/14 09:20:28;;;;;;;2.45;1.50;;;;;;;;;;5031840;28;20045;-73
2020/12/14 09:22:54;;;;;;;2.40;1.23;;;;;;;;;;5043108;28;20076;-73
2020/12/14 09:25:20;;;;;;;2.95;1.95;;;;;;;;;;5032437;28;20098;-73
2020/12/14 09:27:48;;;;;;;3.33;2.28;;;;;;;;;;5035773;28;20037;-73
2020/12/14 09:30:14;;;;;;;1.38;1.27;;;;;;;;;;5046892;28;20068;-73
2020/12/14 09:32:40;;;;;;;14.43;3.00;;;;;;;;;;5047677;28;20029;-73
2020/12/14 09:35:06;;;;;;;1.95;1.67;;;;;;;;;;5045925;28;20037;-73
2020/12/14 09:37:32;;;;;;;3.33;1.40;;;;;;;;;;5036800;28;20056;-73
2020/12/14 09:40:01;;;;;;;3.63;1.90;;;;;;;;;;5036063;28;20489;-73
2020/12/14 09:42:27;;;;;;;2.00;1.77;;;;;;;;;;5042913;28;20036;-73
2020/12/14 09:44:53;;;;;;;2.47;1.70;;;;;;;;;;5036966;28;20254;-73
2020/12/14 09:47:19;;;;;;;3.47;1.70;;;;;;;;;;5029837;28;20037;-73
2020/12/14 09:49:46;;;;;;;1.52;1.25;;;;;;;;;;5035074;28;20044;-73
2020/12/14 09:52:12;;;;;;;3.25;1.77;;;;;;;;;;5035727;28;20032;-75
2020/12/14 09:54:38;;;;;;;2.42;1.63;;;;;;;;;;5033257;28;20021;-73
2020/12/14 09:57:04;;;;;;;3.70;1.70;;;;;;;;;;5029686;28;20533;-73
2020/12/14 09:59:30;;;;;;;3.03;2.28;;;;;;;;;;5026902;28;20419;-73
2020/12/14 10:01:56;;;;;;;3.95;2.10;;;;;;;;;;5029390;28;20092;-73
2020/12/14 10:04:22;;;;;;;3.13;1.80;;;;;;;;;;5027813;28;20041;-73
2020/12/14 10:06:49;;;;;;;5.13;2.22;;;;;;;;;;5029889;28;20017;-74
2020/12/14 10:09:15;;;;;;;2.75;1.77;;;;;;;;;;5034661;28;20105;-77
2020/12/14 10:11:42;;;;;;;4.90;2.03;;;;;;;;;;5039642;28;20027;-73
2020/12/14 10:14:08;;;;;;;4.88;1.80;;;;;;;;;;5028456;28;20100;-73
2020/12/14 10:16:36;;;;;;;3.90;2.03;;;;;;;;;;5042237;28;20040;-73
2020/12/14 10:19:02;;;;;;;3.20;2.28;;;;;;;;;;5044957;28;20025;-74
2020/12/14 10:21:28;;;;;;;4.82;3.13;;;;;;;;;;5041456;28;20659;-73
2020/12/14 10:23:54;;;;;;;21.83;2.95;;;;;;;;;;5045299;28;20664;-73
2020/12/14 10:26:21;;;;;;;6.80;2.60;;;;;;;;;;5042540;28;20487;-75
2020/12/14 10:28:47;;;;;;;4.47;2.22;;;;;;;;;;5040240;28;20026;-75
2020/12/14 10:31:13;;;;;;;3.88;2.50;;;;;;;;;;5039411;28;20025;-73
2020/12/14 10:33:39;;;;;;;6.38;3.40;;;;;;;;;;5036483;28;20041;-73
2020/12/14 10:36:10;;;;;;;2.88;2.17;;;;;;;;;;5034573;28;20032;-75
2020/12/14 10:38:37;;;;;;;5.07;3.00;;;;;;;;;;5034080;28;20060;-73
2020/12/14 10:41:03;;;;;;;7.15;3.88;;;;;;;;;;5036499;28;20026;-74
2020/12/14 10:43:30;;;;;;;4.53;2.65;;;;;;;;;;5035439;28;20458;-73
2020/12/14 10:45:56;;;;;;;5.80;3.40;;;;;;;;;;5036611;28;20072;-73
2020/12/14 10:48:22;;;;;;;6.90;3.30;;;;;;;;;;5036863;28;20403;-73
2020/12/14 10:50:48;;;;;;;4.57;2.58;;;;;;;;;;5036230;28;20027;-72
2020/12/14 10:53:14;;;;;;;4.03;2.78;;;;;;;;;;5036325;28;20032;-73
2020/12/14 10:55:40;;;;;;;3.10;2.38;;;;;;;;;;5030202;28;20017;-73
2020/12/14 10:58:06;;;;;;;3.83;2.60;;;;;;;;;;5029452;28;20048;-76
2020/12/14 11:00:32;;;;;;;5.20;3.20;;;;;;;;;;5027798;28;20072;-73
2020/12/14 11:02:59;;;;;;;4.38;3.97;;;;;;;;;;5032605;28;20043;-73
2020/12/14 11:05:26;;;;;;;8.98;2.90;;;;;;;;;;5034159;28;20496;-73
2020/12/14 11:07:54;;;;;;;3.22;2.08;;;;;;;;;;5033271;28;20136;-73
2020/12/14 11:10:20;;;;;;;2.10;1.85;;;;;;;;;;5041036;28;20069;-73
2020/12/14 11:12:46;;;;;;;3.72;2.00;;;;;;;;;;5036404;28;20037;-73
2020/12/14 11:15:12;;;;;;;2.92;2.63;;;;;;;;;;5032882;28;20029;-75
2020/12/14 11:17:38;;;;;;;6.63;2.33;;;;;;;;;;5032979;28;20544;-73
2020/12/14 11:20:06;;;;;;;2.88;2.42;;;;;;;;;;5036400;28;20084;-73
2020/12/14 11:22:32;;;;;;;4.35;2.50;;;;;;;;;;5034478;28;20799;-74
2020/12/14 11:24:59;;;;;;;5.63;2.95;;;;;;;;;;5034017;28;20080;-73
2020/12/14 11:27:25;;;;;;;3.55;2.65;;;;;;;;;;5035568;28;20048;-73
2020/12/14 11:29:51;;;;;;;3.53;3.20;;;;;;;;;;5041531;28;20044;-73
2020/12/14 11:32:17;;;;;;;10.73;3.00;;;;;;;;;;5039953;28;20051;-74
2020/12/14 11:34:43;;;;;;;5.00;1.80;;;;;;;;;;5041987;28;20032;-74
2020/12/14 11:37:09;;;;;;;3.38;1.95;;;;;;;;;;5033562;28;20061;-74
2020/12/14 11:39:35;;;;;;;5.78;1.67;;;;;;;;;;5029498;28;20073;-74
2020/12/14 11:42:02;;;;;;;4.68;1.95;;;;;;;;;;5034619;28;20056;-74
2020/12/14 11:44:28;;;;;;;3.95;2.88;;;;;;;;;;5026727;28;20033;-74
2020/12/14 11:46:55;;;;;;;4.18;2.17;;;;;;;;;;5038508;28;20040;-74
2020/12/14 11:49:21;;;;;;;2.10;1.90;;;;;;;;;;5044949;28;20049;-74
2020/12/14 11:51:50;;;;;;;3.50;1.52;;;;;;;;;;5039330;28;20156;-74
2020/12/14 11:54:17;;;;;;;1.60;1.50;;;;;;;;;;5040992;28;20586;-74
2020/12/14 11:56:46;;;;;;;1.95;1.25;;;;;;;;;;5044604;28;20032;-74
2020/12/14 11:59:13;;;;;;;3.30;1.90;;;;;;;;;;5044546;28;20037;-74
2020/12/14 12:01:39;;;;;;;1.55;1.45;;;;;;;;;;5046587;28;20047;-74
2020/12/14 12:04:05;;;;;;;3.53;1.73;;;;;;;;;;5041971;28;20029;-75
2020/12/14 12:06:31;;;;;;;2.67;1.65;;;;;;;;;;5041067;28;20128;-75
2020/12/14 12:08:57;;;;;;;4.32;2.42;;;;;;;;;;5039127;28;20033;-75
2020/12/14 12:11:24;;;;;;;4.57;3.92;;;;;;;;;;5043257;28;20750;-75
2020/12/14 12:13:51;;;;;;;9.18;5.70;;;;;;;;;;5045021;28;20086;-75
2020/12/14 12:16:17;;;;;;;9.35;5.88;;;;;;;;;;5041262;28;20446;-74
2020/12/14 12:18:46;;;;;;;10.77;8.02;;;;;;;;;;5045056;28;20112;-74
2020/12/14 12:21:12;;;;;;;9.18;7.68;;;;;;;;;;5044417;28;20139;-75
2020/12/14 12:23:38;;;;;;;10.30;7.72;;;;;;;;;;5045435;28;20412;-75
2020/12/14 12:26:04;;;;;;;17.85;7.85;;;;;;;;;;5041623;28;20130;-74
2020/12/14 12:28:30;;;;;;;12.52;8.70;;;;;;;;;;5044546;28;20028;-77
2020/12/14 12:30:57;;;;;;;10.13;5.97;;;;;;;;;;5030963;28;20036;-79
2020/12/14 12:33:23;;;;;;;9.15;6.43;;;;;;;;;;5052805;28;20043;-77
2020/12/14 12:35:49;;;;;;;11.02;5.53;;;;;;;;;;5036360;28;20028;-75
2020/12/14 12:38:15;;;;;;;8.82;5.55;;;;;;;;;;5042678;28;20055;-75
2020/12/14 12:40:41;;;;;;;12.73;6.20;;;;;;;;;;5034733;28;20047;-75
2020/12/14 12:43:07;;;;;;;5.93;4.45;;;;;;;;;;5031372;28;20052;-74
2020/12/14 12:45:33;;;;;;;7.30;5.50;;;;;;;;;;5033615;28;20483;-75
2020/12/14 12:47:59;;;;;;;5.57;4.68;;;;;;;;;;5034457;28;20455;-75
2020/12/14 12:50:25;;;;;;;5.88;4.68;;;;;;;;;;5031365;28;20033;-75
2020/12/14 12:52:51;;;;;;;7.13;4.30;;;;;;;;;;5032464;28;20040;-75
2020/12/14 12:55:17;;;;;;;6.03;5.40;;;;;;;;;;5022850;28;20025;-74
2020/12/14 12:57:43;;;;;;;4.78;3.50;;;;;;;;;;5030990;28;20594;-74
2020/12/14 13:00:09;;;;;;;6.25;4.43;;;;;;;;;;5039081;28;20072;-74
2020/12/14 13:02:35;;;;;;;10.75;4.63;;;;;;;;;;5042337;28;20021;-78
2020/12/14 13:05:02;;;;;;;5.45;2.72;;;;;;;;;;5039055;28;20041;-76
2020/12/14 13:07:28;;;;;;;7.03;3.20;;;;;;;;;;5038792;28;20126;-74
2020/12/14 13:09:54;;;;;;;10.13;4.25;;;;;;;;;;5038709;28;20633;-74
2020/12/14 13:12:22;;;;;;;8.43;4.10;;;;;;;;;;5038143;28;20079;-75
2020/12/14 13:14:49;;;;;;;7.80;4.20;;;;;;;;;;5040619;28;20041;-74
2020/12/14 13:17:15;;;;;;;5.90;3.38;;;;;;;;;;5036379;28;20072;-76
2020/12/14 13:19:41;;;;;;;3.80;2.88;;;;;;;;;;5042232;28;20070;-75
2020/12/14 13:22:07;;;;;;;2.97;2.42;;;;;;;;;;5043223;28;20032;-75
2020/12/14 13:24:33;;;;;;;5.53;3.17;;;;;;;;;;5042416;28;20688;-75
2020/12/14 13:26:59;;;;;;;5.10;2.67;;;;;;;;;;5040079;28;20041;-75
2020/12/14 13:29:25;;;;;;;3.60;2.55;;;;;;;;;;5040682;28;20478;-74
2020/12/14 13:31:51;;;;;;;3.05;2.08;;;;;;;;;;5043141;28;20186;-75
2020/12/14 13:34:18;;;;;;;3.45;2.67;;;;;;;;;;5041773;28;20033;-74
2020/12/14 13:36:45;;;;;;;7.05;2.47;;;;;;;;;;5039801;28;20049;-74
2020/12/14 13:39:12;;;;;;;3.38;2.63;;;;;;;;;;5041218;28;20040;-75
2020/12/14 13:41:38;;;;;;;5.40;2.35;;;;;;;;;;5037461;28;20045;-77
2020/12/14 13:44:04;;;;;;;6.85;2.20;;;;;;;;;;5039591;28;20482;-75
2020/12/14 13:46:30;;;;;;;2.90;2.03;;;;;;;;;;5039148;28;20067;-76
2020/12/14 13:48:56;;;;;;;2.72;1.58;;;;;;;;;;5041269;28;20029;-75
2020/12/14 13:51:24;;;;;;;3.45;2.58;;;;;;;;;;5037589;28;20644;-75
2020/12/14 13:53:50;;;;;;;3.22;1.65;;;;;;;;;;5045229;28;20552;-74
2020/12/14 13:56:16;;;;;;;3.50;2.85;;;;;;;;;;5038682;28;20553;-72
2020/12/14 13:58:42;;;;;;;3.38;1.60;;;;;;;;;;5045064;28;20013;-73
2020/12/14 14:01:12;;;;;;;2.30;1.77;;;;;;;;;;5043760;28;20534;-78
2020/12/14 14:03:39;;;;;;;4.40;2.15;;;;;;;;;;5038021;28;20029;-75
2020/12/14 14:06:05;;;;;;;1.60;1.50;;;;;;;;;;5036852;28;20029;-75
2020/12/14 14:08:31;;;;;;;4.25;1.77;;;;;;;;;;5045846;28;20067;-75
2020/12/14 14:10:57;;;;;;;1.95;1.50;;;;;;;;;;5045304;28;20480;-76
2020/12/14 14:13:23;;;;;;;3.47;2.08;;;;;;;;;;5041409;28;20037;-74
2020/12/14 14:15:49;;;;;;;3.67;1.52;;;;;;;;;;5041109;28;20033;-74
2020/12/14 14:18:15;;;;;;;1.55;1.10;;;;;;;;;;5047424;28;20033;-75
2020/12/14 14:20:41;;;;;;;1.77;1.63;;;;;;;;;;5047266;28;20068;-74
2020/12/14 14:23:07;;;;;;;1.73;1.40;;;;;;;;;;5046735;28;20021;-74
2020/12/14 14:25:33;;;;;;;3.00;1.20;;;;;;;;;;5045901;28;20036;-75
2020/12/14 14:27:59;;;;;;;5.00;2.38;;;;;;;;;;5048896;28;20540;-75
2020/12/14 14:30:25;;;;;;;1.63;1.45;;;;;;;;;;5049060;28;20079;-75
2020/12/14 14:32:51;;;;;;;3.10;1.23;;;;;;;;;;5049536;28;20025;-75
2020/12/14 14:35:18;;;;;;;1.85;1.40;;;;;;;;;;5047066;28;20033;-75
2020/12/14 14:37:45;;;;;;;2.35;0.90;;;;;;;;;;5048378;28;20076;-76
2020/12/14 14:40:13;;;;;;;3.92;1.40;;;;;;;;;;5048275;28;20570;-75
2020/12/14 14:42:40;;;;;;;2.20;1.27;;;;;;;;;;5046786;28;20031;-75